Time;durP1;ratioP1;P1;durP2;ratioP2;P2;SDS_P1;SDS_P2;PMS_P1;PMS_P2;Temp;Humidity;BMP_temperature;BMP_pressure;BME280_temperature;BME280_humidity;BME280_pressure;Samples;Min_cycle;Max_cycle;Signal;HPM_P1;HPM_P2
2023/09/05 00:01:51;;;;;;;;;;;;;;;25.05;42.19;98688.47;5014765;28;19960;-73
2023/09/05 00:04:16;;;;;;;;;;;;;;;25.07;42.07;98691.75;5033054;28;19964;-73
2023/09/05 00:06:42;;;;;;;;;;;;;;;25.05;41.97;98686.63;5031706;28;19917;-73
2023/09/05 00:09:07;;;;;;;;;;;;;;;25.05;41.95;98683.94;5013831;28;19920;-73
2023/09/05 00:11:33;;;;;;;;;;;;;;;25.03;41.89;98679.84;5012043;28;19921;-73
2023/09/05 00:14:00;;;;;;;;;;;;;;;25.02;41.92;98681.69;5011948;28;19971;-73
2023/09/05 00:16:26;;;;;;;;;;;;;;;25.00;41.93;98683.78;4995713;28;19962;-74
2023/09/05 00:18:51;;;;;;;;;;;;;;;24.98;42.03;98680.47;5013021;28;19914;-74
2023/09/05 00:21:18;;;;;;;;;;;;;;;24.97;41.93;98678.00;5012926;28;19914;-74
2023/09/05 00:23:44;;;;;;;;;;;;;;;24.97;41.94;98678.00;5011964;28;19918;-74
2023/09/05 00:26:09;;;;;;;;;;;;;;;24.95;41.97;98677.41;5011228;28;20315;-74
2023/09/05 00:28:34;;;;;;;;;;;;;;;24.93;42.00;98665.09;5013722;28;19913;-74
2023/09/05 00:31:01;;;;;;;;;;;;;;;24.94;42.03;98663.25;5011976;28;20292;-74
2023/09/05 00:33:28;;;;;;;;;;;;;;;24.93;42.03;98672.28;4995307;28;20297;-74
2023/09/05 00:35:54;;;;;;;;;;;;;;;24.93;42.07;98659.75;5013083;28;19925;-74
2023/09/05 00:38:19;;;;;;;;;;;;;;;24.93;42.06;98658.94;5011677;28;20365;-74
2023/09/05 00:40:45;;;;;;;;;;;;;;;24.90;42.05;98665.50;4995184;28;19913;-75
2023/09/05 00:43:10;;;;;;;;;;;;;;;24.90;42.00;98654.00;5011100;28;20035;-74
2023/09/05 00:45:37;;;;;;;;;;;;;;;24.90;41.97;98670.03;5011768;28;20404;-74
2023/09/05 00:48:07;;;;;;;;;;;;;;;24.88;42.19;98659.56;5012783;28;20007;-74
2023/09/05 00:50:32;;;;;;;;;;;;;;;24.87;41.96;98654.44;5011073;28;20258;-74
2023/09/05 00:52:57;;;;;;;;;;;;;;;24.87;42.18;98651.78;5011782;28;19975;-74
2023/09/05 00:55:23;;;;;;;;;;;;;;;24.88;42.11;98650.75;5011448;28;19917;-74
2023/09/05 00:57:48;;;;;;;;;;;;;;;24.89;42.18;98650.53;5011831;28;19960;-74
2023/09/05 01:00:14;;;;;;;;;;;;;;;24.89;42.18;98647.88;5011306;28;20389;-74
2023/09/05 01:02:40;;;;;;;;;;;;;;;24.89;42.12;98639.00;5011686;28;19913;-74
2023/09/05 01:05:07;;;;;;;;;;;;;;;24.90;42.09;98641.47;5011473;28;19917;-74
2023/09/05 01:07:53;;;;;;;;;;;;;;;24.91;41.98;98643.13;5011313;28;19913;-73
2023/09/05 01:10:21;;;;;;;;;;;;;;;24.92;42.19;98644.78;5010894;28;19913;-74
2023/09/05 01:12:46;;;;;;;;;;;;;;;24.95;42.09;98650.72;5012126;28;19971;-75
2023/09/05 01:15:12;;;;;;;;;;;;;;;24.96;42.21;98647.03;5012528;28;19917;-73
2023/09/05 01:17:37;;;;;;;;;;;;;;;24.91;42.04;98647.66;5011221;28;19913;-73
2023/09/05 01:20:03;;;;;;;;;;;;;;;24.88;42.25;98650.75;4994682;28;19923;-74
2023/09/05 01:22:49;;;;;;;;;;;;;;;24.82;42.36;98656.94;5011163;28;19914;-73
2023/09/05 01:25:14;;;;;;;;;;;;;;;24.77;42.15;98656.75;5010907;28;19914;-73
2023/09/05 01:27:40;;;;;;;;;;;;;;;24.76;42.55;98660.44;5011090;28;19924;-73
2023/09/05 01:30:05;;;;;;;;;;;;;;;24.70;42.51;98660.25;5011347;28;19921;-73
2023/09/05 01:32:31;;;;;;;;;;;;;;;24.66;42.59;98659.03;5012276;28;19993;-73
2023/09/05 01:34:56;;;;;;;;;;;;;;;24.62;42.76;98663.16;5010769;28;19917;-74
2023/09/05 01:37:21;;;;;;;;;;;;;;;24.55;42.86;98663.13;5012534;28;20316;-73
2023/09/05 01:39:47;;;;;;;;;;;;;;;24.56;43.11;98667.47;5014430;28;19936;-73
2023/09/05 01:42:12;;;;;;;;;;;;;;;24.54;43.11;98656.19;4998075;28;19920;-73
2023/09/05 01:44:38;;;;;;;;;;;;;;;24.52;43.05;98654.72;4998188;28;20403;-73
2023/09/05 01:47:04;;;;;;;;;;;;;;;24.52;43.13;98657.41;5014436;28;20003;-73
2023/09/05 01:49:29;;;;;;;;;;;;;;;24.49;43.24;98653.28;5015642;28;20396;-73
2023/09/05 01:51:54;;;;;;;;;;;;;;;24.48;43.15;98659.69;5015620;28;19913;-73
2023/09/05 01:54:20;;;;;;;;;;;;;;;24.45;43.31;98657.44;5014415;28;19914;-73
2023/09/05 01:56:45;;;;;;;;;;;;;;;24.44;43.19;98677.13;5014539;28;19920;-73
2023/09/05 01:59:11;;;;;;;;;;;;;;;24.43;43.34;98662.16;4997766;28;19914;-73
2023/09/05 02:01:36;;;;;;;;;;;;;;;24.39;43.29;98671.59;4997102;28;20008;-72
2023/09/05 02:04:01;;;;;;;;;;;;;;;24.38;43.35;98680.63;5015251;28;19913;-72
2023/09/05 02:06:27;;;;;;;;;;;;;;;24.38;43.35;98676.13;5014033;28;19920;-73
2023/09/05 02:08:52;;;;;;;;;;;;;;;24.38;43.57;98680.63;5015826;28;19913;-73
2023/09/05 02:11:17;;;;;;;;;;;;;;;24.38;43.43;98672.63;4997658;28;20020;-73
2023/09/05 02:13:43;;;;;;;;;;;;;;;24.38;43.42;98678.78;5015465;28;19917;-73
2023/09/05 02:16:08;;;;;;;;;;;;;;;24.39;43.40;98676.94;5013417;28;19917;-73
2023/09/05 02:18:33;;;;;;;;;;;;;;;24.37;43.37;98679.00;5013747;28;19925;-74
2023/09/05 02:21:00;;;;;;;;;;;;;;;24.35;43.44;98683.69;4997407;28;19921;-72
2023/09/05 02:23:25;;;;;;;;;;;;;;;24.33;43.45;98691.91;5015466;28;19920;-72
2023/09/05 02:26:00;;;;;;;;;;;;;;;24.32;43.61;98690.28;5013685;28;19925;-72
2023/09/05 02:28:25;;;;;;;;;;;;;;;24.31;43.70;98690.50;5013587;28;19952;-72
2023/09/05 02:30:51;;;;;;;;;;;;;;;24.30;43.68;98686.19;5013633;28;20014;-73
2023/09/05 02:33:18;;;;;;;;;;;;;;;24.29;43.53;98688.03;5013408;28;19968;-74
2023/09/05 02:35:44;;;;;;;;;;;;;;;24.28;43.72;98686.38;5014458;28;19921;-73
2023/09/05 02:38:10;;;;;;;;;;;;;;;24.25;43.65;98677.97;5014699;28;20008;-73
2023/09/05 02:40:35;;;;;;;;;;;;;;;24.22;43.83;98686.38;5013407;28;19935;-73
2023/09/05 02:43:01;;;;;;;;;;;;;;;24.22;43.89;98673.88;5013493;28;20312;-73
2023/09/05 02:45:26;;;;;;;;;;;;;;;24.24;43.76;98666.47;4996942;28;19913;-71
2023/09/05 02:47:52;;;;;;;;;;;;;;;24.24;43.86;98663.00;5013329;28;20431;-74
2023/09/05 02:50:17;;;;;;;;;;;;;;;24.24;43.57;98661.13;5013610;28;20246;-72
2023/09/05 02:52:42;;;;;;;;;;;;;;;24.22;43.82;98678.41;4996417;28;19921;-72
2023/09/05 02:55:07;;;;;;;;;;;;;;;24.20;43.98;98676.75;5014550;28;19936;-72
2023/09/05 02:57:33;;;;;;;;;;;;;;;24.20;43.92;98675.94;5013219;28;20451;-72
2023/09/05 02:59:58;;;;;;;;;;;;;;;24.15;43.94;98679.22;5014469;28;19913;-72
2023/09/05 03:02:23;;;;;;;;;;;;;;;24.18;44.12;98686.00;5014227;28;19917;-72
2023/09/05 03:04:55;;;;;;;;;;;;;;;24.20;44.09;98686.59;4996211;28;19917;-72
2023/09/05 03:07:20;;;;;;;;;;;;;;;24.23;43.98;98698.69;4996253;28;19914;-72
2023/09/05 03:09:46;;;;;;;;;;;;;;;24.21;44.07;98696.25;4995896;28;19914;-72
2023/09/05 03:12:11;;;;;;;;;;;;;;;24.19;44.01;98693.78;5012822;28;19920;-72
2023/09/05 03:14:37;;;;;;;;;;;;;;;24.21;44.23;98688.25;5012734;28;20499;-72
2023/09/05 03:17:04;;;;;;;;;;;;;;;24.17;44.14;98682.50;5012548;28;19913;-72
2023/09/05 03:19:30;;;;;;;;;;;;;;;24.17;44.24;98684.34;5012117;28;19995;-72
2023/09/05 03:21:55;;;;;;;;;;;;;;;24.15;44.31;98681.06;5012347;28;20416;-72
2023/09/05 03:24:21;;;;;;;;;;;;;;;24.13;44.44;98696.44;5012472;28;19983;-73
2023/09/05 03:26:46;;;;;;;;;;;;;;;24.13;44.49;98689.28;5012172;28;20376;-73
2023/09/05 03:29:13;;;;;;;;;;;;;;;24.10;44.51;98694.19;4995909;28;20359;-73
2023/09/05 03:31:38;;;;;;;;;;;;;;;24.08;44.53;98693.56;5012881;28;19913;-72
2023/09/05 03:34:03;;;;;;;;;;;;;;;24.09;44.60;98695.22;5013632;28;19918;-72
2023/09/05 03:36:29;;;;;;;;;;;;;;;24.07;44.69;98706.09;5012632;28;19919;-72
2023/09/05 03:38:54;;;;;;;;;;;;;;;24.07;44.70;98699.91;5013811;28;20004;-74
2023/09/05 03:41:19;;;;;;;;;;;;;;;24.05;44.84;98705.47;5013654;28;19920;-79
2023/09/05 03:43:45;;;;;;;;;;;;;;;24.06;44.87;98714.28;5013652;28;19995;-80
2023/09/05 03:46:10;;;;;;;;;;;;;;;24.05;45.15;98712.66;5021495;28;19924;-81
2023/09/05 03:48:35;;;;;;;;;;;;;;;24.08;44.89;98697.06;5031075;28;20069;-78
2023/09/05 03:51:01;;;;;;;;;;;;;;;23.94;45.05;98704.25;5033211;28;20368;-82
2023/09/05 03:53:26;;;;;;;;;;;;;;;23.79;45.76;98703.59;5031679;28;19913;-80
2023/09/05 03:55:51;;;;;;;;;;;;;;;23.69;45.79;98700.47;5014666;28;20016;-76
2023/09/05 03:58:16;;;;;;;;;;;;;;;23.59;47.53;98703.53;5032982;28;20453;-85
2023/09/05 04:00:42;;;;;;;;;;;;;;;23.77;46.50;98695.78;5031023;28;19913;-85
2023/09/05 04:03:10;;;;;;;;;;;;;;;23.86;47.04;98699.09;5033931;28;20005;-77
2023/09/05 04:05:36;;;;;;;;;;;;;;;23.73;45.82;98704.41;5031738;28;20281;-79
2023/09/05 04:08:01;;;;;;;;;;;;;;;23.56;46.23;98699.47;5003533;28;20012;-86
2023/09/05 04:10:27;;;;;;;;;;;;;;;23.60;46.55;98689.22;5015731;28;20020;-80
2023/09/05 04:12:52;;;;;;;;;;;;;;;23.61;46.88;98693.50;5033058;28;19913;-82
2023/09/05 04:15:21;;;;;;;;;;;;;;;23.60;46.38;98694.53;5031519;28;19913;-79
2023/09/05 04:17:47;;;;;;;;;;;;;;;23.60;46.65;98692.69;5031505;28;19960;-83
2023/09/05 04:20:13;;;;;;;;;;;;;;;23.62;46.61;98685.31;5031013;28;19956;-85
2023/09/05 04:22:38;;;;;;;;;;;;;;;23.65;46.25;98703.56;5031154;28;20333;-83
2023/09/05 04:25:05;;;;;;;;;;;;;;;23.70;46.19;98700.28;5031618;28;19939;-84
2023/09/05 04:27:30;;;;;;;;;;;;;;;23.74;45.83;98700.72;5032455;28;19967;-82
2023/09/05 04:29:55;;;;;;;;;;;;;;;23.79;45.95;98699.06;5032842;28;19917;-83
2023/09/05 04:32:27;;;;;;;;;;;;;;;23.83;45.45;98702.13;5014578;28;19920;-84
2023/09/05 04:34:58;;;;;;;;;;;;;;;23.85;45.38;98708.13;5031835;28;19924;-83
2023/09/05 04:37:24;;;;;;;;;;;;;;;23.89;45.20;98697.88;5032177;28;20380;-84
2023/09/05 04:39:49;;;;;;;;;;;;;;;23.93;45.10;98705.25;5014951;28;19920;-83
2023/09/05 04:42:14;;;;;;;;;;;;;;;23.96;45.25;98701.38;5031117;28;19913;-83
2023/09/05 04:44:40;;;;;;;;;;;;;;;23.98;45.25;98702.81;5031260;28;19923;-83
2023/09/05 04:47:35;;;;;;;;;;;;;;;24.01;44.92;98704.25;5032544;28;19921;-81
2023/09/05 04:50:00;;;;;;;;;;;;;;;24.02;44.88;98701.38;4952638;28;19922;-84
2023/09/05 04:52:26;;;;;;;;;;;;;;;24.06;44.97;98690.31;4936609;29;19914;-82
2023/09/05 04:54:52;;;;;;;;;;;;;;;24.08;45.00;98696.25;4919317;29;19915;-85
2023/09/05 04:57:17;;;;;;;;;;;;;;;24.09;44.67;98688.03;4934947;29;20411;-82
2023/09/05 04:59:43;;;;;;;;;;;;;;;24.07;44.79;98692.75;4919893;29;20064;-84
2023/09/05 05:02:09;;;;;;;;;;;;;;;24.08;44.87;98694.38;4935396;29;19989;-82
2023/09/05 05:04:34;;;;;;;;;;;;;;;24.09;44.86;98690.69;4920384;29;20022;-83
2023/09/05 05:06:59;;;;;;;;;;;;;;;24.09;44.85;98679.22;4936488;29;19976;-84
2023/09/05 05:09:25;;;;;;;;;;;;;;;24.09;44.73;98693.38;4936377;29;19957;-84
2023/09/05 05:11:50;;;;;;;;;;;;;;;24.22;44.80;98681.88;4937539;29;19914;-82
2023/09/05 05:14:16;;;;;;;;;;;;;;;24.34;44.41;98685.56;4940427;29;19915;-80
2023/09/05 05:16:44;;;;;;;;;;;;;;;24.44;44.26;98693.13;4929771;29;19938;-78
2023/09/05 05:19:10;;;;;;;;;;;;;;;24.60;43.78;98675.88;4925672;29;19914;-79
2023/09/05 05:21:36;;;;;;;;;;;;;;;24.86;43.28;98682.16;4923594;29;19926;-77
2023/09/05 05:24:02;;;;;;;;;;;;;;;25.03;42.76;98670.00;4939855;29;19930;-78
2023/09/05 05:26:28;;;;;;;;;;;;;;;25.18;42.24;98664.38;4998386;28;20004;-80
2023/09/05 05:28:53;;;;;;;;;;;;;;;25.25;42.11;98657.16;5017968;28;19920;-77
2023/09/05 05:31:19;;;;;;;;;;;;;;;25.29;42.17;98670.91;5034839;28;19913;-80
2023/09/05 05:33:44;;;;;;;;;;;;;;;25.40;42.24;98672.09;5001302;28;19917;-80
2023/09/05 05:36:09;;;;;;;;;;;;;;;25.47;41.84;98667.50;5017890;28;20059;-79
2023/09/05 05:38:35;;;;;;;;;;;;;;;25.55;41.82;98663.75;5017796;28;20019;-80
2023/09/05 05:41:01;;;;;;;;;;;;;;;25.56;41.51;98660.06;5017741;28;19919;-82
2023/09/05 05:43:27;;;;;;;;;;;;;;;25.60;41.73;98670.09;5034262;28;19972;-79
2023/09/05 05:45:52;;;;;;;;;;;;;;;25.61;41.63;98671.72;5017919;28;19928;-79
2023/09/05 05:48:18;;;;;;;;;;;;;;;25.61;41.71;98674.41;5017642;28;19920;-79
2023/09/05 05:50:43;;;;;;;;;;;;;;;25.61;41.28;98676.25;5017552;28;19932;-81
2023/09/05 05:53:08;;;;;;;;;;;;;;;25.61;41.75;98700.31;5034556;28;20324;-81
2023/09/05 05:55:34;;;;;;;;;;;;;;;25.59;41.71;98691.72;5017260;28;19917;-79
2023/09/05 05:58:00;;;;;;;;;;;;;;;25.58;41.56;98687.38;5034634;28;19920;-79
2023/09/05 06:00:26;;;;;;;;;;;;;;;25.58;41.47;98701.56;5017449;28;19987;-80
2023/09/05 06:02:51;;;;;;;;;;;;;;;25.60;41.45;98704.84;5016997;28;19919;-82
2023/09/05 06:05:16;;;;;;;;;;;;;;;25.61;41.22;98706.47;5016793;28;20019;-80
2023/09/05 06:07:42;;;;;;;;;;;;;;;25.63;41.11;98706.25;5016494;28;19917;-81
2023/09/05 06:10:07;;;;;;;;;;;;;;;25.63;41.39;98708.94;5033813;28;19920;-82
2023/09/05 06:12:33;;;;;;;;;;;;;;;25.63;41.52;98722.28;5033815;28;19920;-83
2023/09/05 06:14:59;;;;;;;;;;;;;;;25.62;41.49;98720.69;5034827;28;19913;-80
2023/09/05 06:17:24;;;;;;;;;;;;;;;25.62;41.36;98731.38;5017166;28;19917;-85
2023/09/05 06:19:50;;;;;;;;;;;;;;;25.64;40.98;98731.97;5017691;28;19913;-80
2023/09/05 06:22:15;;;;;;;;;;;;;;;25.66;41.02;98743.25;5000843;28;19913;-83
2023/09/05 06:24:40;;;;;;;;;;;;;;;25.69;41.14;98753.50;5016216;28;19948;-79
2023/09/05 06:27:06;;;;;;;;;;;;;;;25.67;40.95;98760.94;5034853;28;19918;-82
2023/09/05 06:29:31;;;;;;;;;;;;;;;25.71;40.81;98764.81;5034288;28;19913;-80
2023/09/05 06:31:56;;;;;;;;;;;;;;;25.71;41.20;98780.84;5017729;28;20308;-79
2023/09/05 06:34:22;;;;;;;;;;;;;;;25.90;40.51;98789.81;5033249;28;19955;-79
2023/09/05 06:36:47;;;;;;;;;;;;;;;26.21;40.49;98795.38;5017183;28;20016;-79
2023/09/05 06:39:12;;;;;;;;;;;;;;;26.56;39.63;98794.91;5016843;28;20011;-82
2023/09/05 06:41:39;;;;;;;;;;;;;;;26.76;38.87;98787.53;5033547;28;19913;-83
2023/09/05 06:44:04;;;;;;;;;;;;;;;26.98;38.76;98797.78;5001443;28;20384;-77
2023/09/05 06:46:35;;;;;;;;;;;;;;;27.16;38.27;98805.03;5017060;28;19970;-84
2023/09/05 06:49:00;;;;;;;;;;;;;;;27.33;37.75;98813.34;5017585;28;19970;-79
2023/09/05 06:51:25;;;;;;;;;;;;;;;27.40;37.53;98819.41;5017044;28;19913;-81
2023/09/05 06:53:51;;;;;;;;;;;;;;;27.49;37.37;98815.41;5035856;28;19913;-84
2023/09/05 06:56:17;;;;;;;;;;;;;;;27.53;37.64;98832.69;5019947;28;19913;-87
2023/09/05 06:58:43;;;;;;;;;;;;;;;27.59;37.77;98826.38;5036852;28;20371;-88
2023/09/05 07:01:08;;;;;;;;;;;;;;;27.59;37.67;98828.25;5022047;28;19917;-89
2023/09/05 07:03:33;;;;;;;;;;;;;;;27.61;37.54;98823.47;5036572;28;20003;-88
2023/09/05 07:06:00;;;;;;;;;;;;;;;27.67;37.54;98816.41;5002953;28;19919;-86
2023/09/05 07:08:26;;;;;;;;;;;;;;;27.67;37.22;98817.22;5017952;28;19913;-82
2023/09/05 07:10:51;;;;;;;;;;;;;;;27.69;37.60;98803.59;5017083;28;19917;-80
2023/09/05 07:13:16;;;;;;;;;;;;;;;28.37;36.62;98801.59;5033141;28;20380;-82
2023/09/05 07:15:43;;;;;;;;;;;;;;;28.82;35.22;98799.19;5017762;28;19913;-87
2023/09/05 07:18:08;;;;;;;;;;;;;;;28.77;35.27;98796.38;5033675;28;20007;-82
2023/09/05 07:20:34;;;;;;;;;;;;;;;29.06;34.77;98791.09;5033440;28;20017;-84
2023/09/05 07:22:59;;;;;;;;;;;;;;;28.81;34.99;98778.75;5016430;28;19913;-82
2023/09/05 07:25:25;;;;;;;;;;;;;;;28.94;34.93;98776.84;5034381;28;19912;-80
2023/09/05 07:27:50;;;;;;;;;;;;;;;28.85;35.30;98773.72;5007544;28;20372;-85
2023/09/05 07:30:16;;;;;;;;;;;;;;;29.38;34.26;98761.13;5015907;28;19920;-85
2023/09/05 07:32:42;;;;;;;;;;;;;;;29.82;33.95;98752.53;5014759;28;20010;-86
2023/09/05 07:35:08;;;;;;;;;;;;;;;29.74;34.19;98761.78;4996697;28;19917;-85
2023/09/05 07:37:33;;;;;;;;;;;;;;;29.59;34.63;98756.97;5013356;28;19929;-82
2023/09/05 07:39:59;;;;;;;;;;;;;;;29.53;34.62;98752.53;4996981;28;19937;-81
2023/09/05 07:42:24;;;;;;;;;;;;;;;29.34;34.58;98751.91;5013064;28;19913;-79
2023/09/05 07:44:49;;;;;;;;;;;;;;;29.15;34.92;98751.25;4996192;28;19913;-82
2023/09/05 07:47:15;;;;;;;;;;;;;;;28.96;34.98;98748.72;4995991;28;19928;-81
2023/09/05 07:49:43;;;;;;;;;;;;;;;28.71;35.66;98740.13;4996371;28;19917;-81
2023/09/05 07:52:09;;;;;;;;;;;;;;;28.60;35.33;98734.50;5013571;28;20015;-84
2023/09/05 07:54:35;;;;;;;;;;;;;;;28.50;36.00;98747.69;4996424;28;19968;-80
2023/09/05 07:57:01;;;;;;;;;;;;;;;28.48;35.95;98755.13;4996590;28;19913;-83
2023/09/05 07:59:26;;;;;;;;;;;;;;;28.48;35.67;98747.06;4996621;28;19920;-81
2023/09/05 08:01:51;;;;;;;;;;;;;;;28.56;35.67;98767.41;4996164;28;20336;-81
2023/09/05 08:04:17;;;;;;;;;;;;;;;28.76;35.47;98761.72;5013082;28;20427;-86
2023/09/05 08:06:42;;;;;;;;;;;;;;;28.99;35.98;98767.03;4980042;28;20356;-80
2023/09/05 08:09:07;;;;;;;;;;;;;;;29.22;34.95;98774.28;5013189;28;19913;-80
2023/09/05 08:11:34;;;;;;;;;;;;;;;29.50;34.08;98777.22;4996457;28;20250;-84
2023/09/05 08:13:59;;;;;;;;;;;;;;;29.20;34.37;98783.63;4996197;28;19976;-78
2023/09/05 08:16:24;;;;;;;;;;;;;;;28.85;34.88;98787.16;5012532;28;19913;-80
2023/09/05 08:18:50;;;;;;;;;;;;;;;28.50;35.16;98791.44;4995955;28;19913;-79
2023/09/05 08:21:16;;;;;;;;;;;;;;;27.97;35.55;98801.19;5012362;28;20380;-79
2023/09/05 08:23:41;;;;;;;;;;;;;;;27.81;36.37;98796.41;4996279;28;19920;-78
2023/09/05 08:26:10;;;;;;;;;;;;;;;27.68;36.32;98796.59;4995451;28;19913;-78
2023/09/05 08:28:36;;;;;;;;;;;;;;;27.51;37.01;98799.91;4996511;28;19920;-77
2023/09/05 08:31:02;;;;;;;;;;;;;;;27.43;36.40;98813.63;5011652;28;19914;-77
2023/09/05 08:33:29;;;;;;;;;;;;;;;27.21;36.67;98826.63;4995896;28;19913;-79
2023/09/05 08:35:54;;;;;;;;;;;;;;;27.27;37.52;98821.19;5011286;28;19925;-78
2023/09/05 08:38:20;;;;;;;;;;;;;;;27.11;36.91;98848.56;4995693;28;19971;-78
2023/09/05 08:40:46;;;;;;;;;;;;;;;27.19;37.64;98856.31;4996164;28;19920;-80
2023/09/05 08:43:11;;;;;;;;;;;;;;;27.33;37.24;98874.97;5011932;28;20008;-79
2023/09/05 08:45:36;;;;;;;;;;;;;;;27.38;36.93;98878.59;5031313;28;19956;-78
2023/09/05 08:48:02;;;;;;;;;;;;;;;27.33;37.13;98891.06;5034247;28;19913;-81
2023/09/05 08:50:28;;;;;;;;;;;;;;;27.35;36.71;98895.13;5018459;28;19912;-79
2023/09/05 08:52:54;;;;;;;;;;;;;;;27.39;36.54;98906.22;5030155;28;19970;-78
2023/09/05 08:55:19;;;;;;;;;;;;;;;27.51;36.23;98911.69;5018406;28;19913;-79
2023/09/05 08:57:46;;;;;;;;;;;;;;;27.61;35.74;98914.66;5017699;28;19964;-78
2023/09/05 09:00:11;;;;;;;;;;;;;;;27.72;35.72;98913.91;5018130;28;19960;-79
2023/09/05 09:02:38;;;;;;;;;;;;;;;27.80;35.97;98910.94;5035321;28;19974;-78
2023/09/05 09:05:03;;;;;;;;;;;;;;;28.03;35.68;98922.03;5035202;28;19913;-78
2023/09/05 09:07:29;;;;;;;;;;;;;;;28.11;35.64;98919.03;5018796;28;19920;-79
2023/09/05 09:09:55;;;;;;;;;;;;;;;28.16;35.53;98927.22;5022229;28;19913;-79
2023/09/05 09:12:30;;;;;;;;;;;;;;;28.15;35.49;98928.28;5018577;28;19921;-78
2023/09/05 09:14:56;;;;;;;;;;;;;;;28.17;35.55;98925.38;5018531;28;19913;-81
2023/09/05 09:17:23;;;;;;;;;;;;;;;28.14;35.49;98930.13;5035008;28;20292;-79
2023/09/05 09:19:49;;;;;;;;;;;;;;;28.15;35.38;98936.31;5034850;28;19917;-78
2023/09/05 09:22:14;;;;;;;;;;;;;;;28.14;35.69;98940.03;5018372;28;19924;-80
2023/09/05 09:24:39;;;;;;;;;;;;;;;28.09;35.58;98935.34;5018335;28;19913;-78
2023/09/05 09:27:05;;;;;;;;;;;;;;;28.06;35.44;98937.69;5034953;28;19920;-80
2023/09/05 09:29:30;;;;;;;;;;;;;;;28.02;35.71;98942.66;5018309;28;20395;-85
2023/09/05 09:32:05;;;;;;;;;;;;;;;28.01;35.57;98948.28;5018147;28;19963;-79
2023/09/05 09:34:31;;;;;;;;;;;;;;;27.96;35.85;98941.72;5034302;28;19924;-80
2023/09/05 09:36:58;;;;;;;;;;;;;;;27.96;35.68;98944.41;5018177;28;19917;-78
2023/09/05 09:39:23;;;;;;;;;;;;;;;27.98;35.77;98950.34;5034613;28;19919;-79
2023/09/05 09:41:49;;;;;;;;;;;;;;;28.00;35.71;98954.69;5017915;28;20012;-80
2023/09/05 09:44:44;;;;;;;;;;;;;;;28.02;35.89;98949.91;5018124;28;19974;-79
2023/09/05 09:47:10;;;;;;;;;;;;;;;28.05;35.88;98954.81;4939529;29;19914;-79
2023/09/05 09:49:36;;;;;;;;;;;;;;;28.07;35.91;98958.91;4955495;29;19922;-78
2023/09/05 09:52:04;;;;;;;;;;;;;;;28.06;35.98;98954.59;4939348;29;19914;-78
2023/09/05 09:54:33;;;;;;;;;;;;;;;28.08;36.01;98957.03;4939704;29;19914;-80
2023/09/05 09:57:03;;;;;;;;;;;;;;;28.10;36.04;98953.09;4923350;29;19922;-79
2023/09/05 09:59:35;;;;;;;;;;;;;;;28.15;35.97;98958.59;4922683;29;19918;-77
2023/09/05 10:02:01;;;;;;;;;;;;;;;28.18;35.99;98957.34;4939847;29;19915;-78
2023/09/05 10:04:26;;;;;;;;;;;;;;;28.25;36.04;98962.63;4923058;29;19914;-78
2023/09/05 10:06:51;;;;;;;;;;;;;;;28.33;36.02;98959.59;4938984;29;19973;-77
2023/09/05 10:09:17;;;;;;;;;;;;;;;28.44;35.83;98958.03;4923159;29;19937;-78
2023/09/05 10:11:43;;;;;;;;;;;;;;;28.50;35.98;98952.56;4939395;29;20326;-82
2023/09/05 10:14:08;;;;;;;;;;;;;;;28.57;35.71;98965.88;4939081;29;19969;-79
2023/09/05 10:16:34;;;;;;;;;;;;;;;28.60;35.45;98960.06;4938732;29;19918;-78
2023/09/05 10:18:59;;;;;;;;;;;;;;;28.65;35.26;98965.56;4938945;29;20032;-79
2023/09/05 10:21:25;;;;;;;;;;;;;;;28.68;35.19;98962.44;4922755;29;19914;-82
2023/09/05 10:23:50;;;;;;;;;;;;;;;28.74;35.41;98973.31;4981634;28;19913;-82
2023/09/05 10:26:16;;;;;;;;;;;;;;;28.74;35.02;98968.75;5016761;28;20402;-80
2023/09/05 10:28:41;;;;;;;;;;;;;;;28.75;35.29;98969.56;5017010;28;20014;-79
2023/09/05 10:31:12;;;;;;;;;;;;;;;28.69;35.10;98968.63;5033611;28;19975;-79
2023/09/05 10:33:37;;;;;;;;;;;;;;;28.63;35.11;98969.56;5016672;28;19913;-78
2023/09/05 10:36:03;;;;;;;;;;;;;;;28.55;35.42;98972.53;5034593;28;19928;-78
2023/09/05 10:38:30;;;;;;;;;;;;;;;28.49;35.57;98974.25;5016508;28;20294;-81
2023/09/05 10:40:55;;;;;;;;;;;;;;;28.44;35.70;98976.81;5033418;28;19913;-79
2023/09/05 10:43:22;;;;;;;;;;;;;;;28.37;35.48;98976.06;5032872;28;19936;-78
2023/09/05 10:45:53;;;;;;;;;;;;;;;28.31;35.68;98981.31;5032939;28;20388;-78
2023/09/05 10:48:30;;;;;;;;;;;;;;;28.26;35.73;98972.28;5032999;28;20003;-79
2023/09/05 10:51:06;;;;;;;;;;;;;;;28.23;35.85;98975.41;5016305;28;20281;-80
2023/09/05 10:53:33;;;;;;;;;;;;;;;28.18;35.86;98978.81;5016299;28;19917;-79
2023/09/05 10:55:59;;;;;;;;;;;;;;;28.10;36.12;98974.56;5016990;28;19935;-79
2023/09/05 10:58:43;;;;;;;;;;;;;;;28.04;36.11;98975.47;5015983;28;20436;-80
2023/09/05 11:01:29;;;;;;;;;;;;;;;27.94;36.32;98984.06;5016700;28;19919;-80
2023/09/05 11:03:54;;;;;;;;;;;;;;;27.85;36.56;98980.00;5016540;28;20383;-78
2023/09/05 11:06:19;;;;;;;;;;;;;;;27.70;36.49;98976.84;5032716;28;20007;-81
2023/09/05 11:08:55;;;;;;;;;;;;;;;27.58;36.73;98980.28;5016387;28;19913;-80
2023/09/05 11:11:23;;;;;;;;;;;;;;;27.50;37.06;98980.56;5015599;28;19920;-79
2023/09/05 11:13:49;;;;;;;;;;;;;;;27.40;37.27;98983.72;5016391;28;19912;-81
2023/09/05 11:16:14;;;;;;;;;;;;;;;27.34;37.49;98983.81;5016688;28;20012;-78
2023/09/05 11:18:42;;;;;;;;;;;;;;;27.27;37.47;98991.88;5016003;28;20458;-80
2023/09/05 11:21:07;;;;;;;;;;;;;;;27.22;37.81;98989.84;5032486;28;19913;-78
2023/09/05 11:23:34;;;;;;;;;;;;;;;27.22;37.77;98989.03;5032832;28;20008;-80
2023/09/05 11:26:02;;;;;;;;;;;;;;;27.18;37.81;98987.81;4999929;28;19920;-79
2023/09/05 11:28:27;;;;;;;;;;;;;;;27.12;37.80;98997.59;5016452;28;20372;-80
2023/09/05 11:30:56;;;;;;;;;;;;;;;27.04;37.85;98985.28;5015973;28;19920;-79
2023/09/05 11:33:21;;;;;;;;;;;;;;;26.93;38.19;98993.19;5032148;28;19913;-79
2023/09/05 11:35:48;;;;;;;;;;;;;;;26.87;38.60;99001.06;5015829;28;20264;-80
2023/09/05 11:38:14;;;;;;;;;;;;;;;26.80;38.65;99002.13;4999902;28;19913;-77
2023/09/05 11:40:40;;;;;;;;;;;;;;;26.76;38.67;98998.22;5015798;28;20008;-80
2023/09/05 11:43:07;;;;;;;;;;;;;;;26.73;39.11;98998.69;5031910;28;19920;-81
2023/09/05 11:45:32;;;;;;;;;;;;;;;26.71;39.48;98997.03;5014186;28;19913;-78
2023/09/05 11:47:58;;;;;;;;;;;;;;;26.69;39.98;99000.97;5031768;28;20000;-78
2023/09/05 11:50:23;;;;;;;;;;;;;;;26.65;40.07;99002.44;5015352;28;19928;-78
2023/09/05 11:52:51;;;;;;;;;;;;;;;26.66;40.22;99004.06;5032191;28;19913;-79
2023/09/05 11:55:16;;;;;;;;;;;;;;;26.66;41.09;98998.72;5031982;28;20307;-80
2023/09/05 11:57:42;;;;;;;;;;;;;;;26.65;41.78;99002.44;5031939;28;19939;-80
2023/09/05 12:00:11;;;;;;;;;;;;;;;26.67;41.73;99003.03;5031696;28;19936;-79
2023/09/05 12:02:37;;;;;;;;;;;;;;;26.68;42.38;98994.78;5031494;28;20299;-80
2023/09/05 12:05:04;;;;;;;;;;;;;;;26.66;42.77;98999.56;5031610;28;19913;-80
2023/09/05 12:07:30;;;;;;;;;;;;;;;26.69;43.07;98990.25;5031958;28;20356;-79
2023/09/05 12:09:55;;;;;;;;;;;;;;;26.72;43.29;98984.47;4998751;28;19913;-81
2023/09/05 12:12:21;;;;;;;;;;;;;;;26.76;43.36;98980.31;5032908;28;19920;-81
2023/09/05 12:14:50;;;;;;;;;;;;;;;26.79;43.84;98969.19;5014994;28;19920;-79
2023/09/05 12:17:16;;;;;;;;;;;;;;;26.84;43.94;98958.63;4998997;28;20391;-79
2023/09/05 12:19:41;;;;;;;;;;;;;;;26.86;43.73;98956.53;5015156;28;19913;-78
2023/09/05 12:22:07;;;;;;;;;;;;;;;26.90;43.96;98952.41;5032193;28;20273;-78
2023/09/05 12:24:32;;;;;;;;;;;;;;;26.94;43.61;98939.38;5032852;28;19936;-80
2023/09/05 12:26:59;;;;;;;;;;;;;;;26.97;43.69;98935.47;5015075;28;20403;-77
2023/09/05 12:29:41;;;;;;;;;;;;;;;26.98;43.65;98939.75;5015081;28;20374;-79
2023/09/05 12:32:07;;;;;;;;;;;;;;;26.96;43.27;98939.16;5031512;28;19913;-80
2023/09/05 12:34:32;;;;;;;;;;;;;;;26.98;43.47;98953.16;5031346;28;19924;-79
2023/09/05 12:36:57;;;;;;;;;;;;;;;26.94;43.24;98954.66;5014965;28;19917;-78
2023/09/05 12:39:23;;;;;;;;;;;;;;;26.94;43.17;98947.44;5031377;28;19913;-80
2023/09/05 12:41:50;;;;;;;;;;;;;;;26.92;43.42;98933.44;5031216;28;20442;-78
2023/09/05 12:44:15;;;;;;;;;;;;;;;26.88;43.31;98942.94;5032429;28;20019;-79